Time;durP1;ratioP1;P1;durP2;ratioP2;P2;SDS_P1;SDS_P2;PMS_P1;PMS_P2;Temp;Humidity;BMP_temperature;BMP_pressure;BME280_temperature;BME280_humidity;BME280_pressure;Samples;Min_cycle;Max_cycle;Signal;HPM_P1;HPM_P2
2023/08/29 00:00:10;;;;;;;5.10;2.57;;;;;;;18.72;65.85;99987.94;5070572;28;20207;-67
2023/08/29 00:02:41;;;;;;;4.30;2.40;;;;;;;18.72;65.66;99987.94;5071288;28;20215;-68
2023/08/29 00:05:12;;;;;;;3.30;2.63;;;;;;;18.73;65.38;99981.56;5074174;28;20319;-69
2023/08/29 00:07:40;;;;;;;5.63;2.53;;;;;;;18.71;65.79;99983.63;5071024;28;20223;-67
2023/08/29 00:10:08;;;;;;;3.60;2.53;;;;;;;18.71;65.60;99986.31;5072411;28;20246;-68
2023/08/29 00:12:36;;;;;;;4.03;2.40;;;;;;;18.71;65.33;99983.63;5069689;28;20572;-67
2023/08/29 00:15:05;;;;;;;4.20;2.37;;;;;;;18.70;65.20;99974.72;5071344;28;20326;-68
2023/08/29 00:17:32;;;;;;;5.13;2.63;;;;;;;18.71;65.47;99978.25;5073801;28;20290;-68
2023/08/29 00:20:01;;;;;;;4.00;2.63;;;;;;;18.71;65.46;99980.94;5074304;28;20216;-68
2023/08/29 00:22:30;;;;;;;4.57;2.60;;;;;;;18.71;65.74;99987.13;5070349;28;20554;-68
2023/08/29 00:24:58;;;;;;;5.27;2.60;;;;;;;18.71;65.56;99986.31;5073734;28;20376;-68
2023/08/29 00:27:25;;;;;;;5.77;2.53;;;;;;;18.71;65.37;99991.66;5072058;28;20290;-66
2023/08/29 00:29:53;;;;;;;5.30;2.77;;;;;;;18.70;65.56;99990.03;5074845;28;20213;-69
2023/08/29 00:32:21;;;;;;;2.80;2.10;;;;;;;18.68;65.75;99992.91;5073722;28;20211;-67
2023/08/29 00:34:49;;;;;;;4.20;2.80;;;;;;;18.67;65.74;99995.81;5080064;28;20950;-68
2023/08/29 00:37:16;;;;;;;3.67;2.50;;;;;;;18.68;65.42;100000.97;5075635;28;20209;-67
2023/08/29 00:39:45;;;;;;;4.57;2.57;;;;;;;18.68;65.70;100011.72;5075074;28;20207;-67
2023/08/29 00:42:13;;;;;;;4.63;2.90;;;;;;;18.69;65.48;100015.22;5075300;28;20719;-67
2023/08/29 00:44:41;;;;;;;4.43;2.97;;;;;;;18.70;65.80;100022.25;5076364;28;20290;-69
2023/08/29 00:47:08;;;;;;;4.80;2.73;;;;;;;18.70;65.81;100027.63;5074254;28;20203;-67
2023/08/29 00:49:37;;;;;;;5.03;2.53;;;;;;;18.70;65.56;100033.00;5071332;28;20198;-69
2023/08/29 00:52:05;;;;;;;5.00;2.83;;;;;;;18.71;65.68;100029.28;5073266;28;20207;-68
2023/08/29 00:54:33;;;;;;;4.67;2.90;;;;;;;18.71;65.81;100030.09;5073327;28;20222;-67
2023/08/29 00:57:02;;;;;;;7.50;3.03;;;;;;;18.72;65.56;100020.19;5071789;28;20318;-69
2023/08/29 00:59:30;;;;;;;3.63;2.33;;;;;;;18.71;65.60;100016.66;5077391;28;20684;-66
2023/08/29 01:01:58;;;;;;;4.17;2.83;;;;;;;18.71;65.51;100018.53;5075059;28;20226;-67
2023/08/29 01:04:26;;;;;;;6.50;3.03;;;;;;;18.71;65.47;100018.53;5076027;28;20326;-67
2023/08/29 01:06:55;;;;;;;4.10;3.00;;;;;;;18.71;65.66;100021.22;5074974;28;21055;-68
2023/08/29 01:09:23;;;;;;;4.60;2.83;;;;;;;18.71;65.74;100023.91;5074756;28;20207;-68
2023/08/29 01:12:00;;;;;;;5.10;2.70;;;;;;;18.69;65.85;100031.34;5075690;28;20743;-68
2023/08/29 01:14:36;;;;;;;4.53;2.60;;;;;;;18.66;65.78;100021.84;5076132;28;20225;-67
2023/08/29 01:17:09;;;;;;;4.73;2.87;;;;;;;18.66;65.94;100026.38;5070233;28;20295;-67
2023/08/29 01:19:41;;;;;;;4.63;2.80;;;;;;;18.66;66.30;100031.75;5070630;28;20215;-67
2023/08/29 01:22:26;;;;;;;4.90;3.47;;;;;;;18.66;66.61;100031.75;5072836;28;20211;-69
2023/08/29 01:25:01;;;;;;;5.70;2.90;;;;;;;18.67;66.06;100033.41;5075684;28;20206;-68
2023/08/29 01:27:31;;;;;;;5.20;3.00;;;;;;;18.66;66.58;100031.75;5076030;28;20206;-67
2023/08/29 01:30:00;;;;;;;5.30;3.07;;;;;;;18.66;66.70;100021.00;5072154;28;20208;-66
2023/08/29 01:32:29;;;;;;;5.40;3.07;;;;;;;18.66;66.25;100021.00;5074024;28;20302;-68
2023/08/29 01:34:57;;;;;;;4.90;3.10;;;;;;;18.65;66.24;100020.19;5077812;28;21025;-68
2023/08/29 01:37:25;;;;;;;4.10;2.60;;;;;;;18.65;66.64;100019.34;5070652;28;20566;-68
2023/08/29 01:39:52;;;;;;;5.77;3.00;;;;;;;18.63;66.67;100013.38;5077132;28;20292;-67
2023/08/29 01:42:20;;;;;;;6.30;3.10;;;;;;;18.64;66.37;100020.41;5072922;28;20346;-66
2023/08/29 01:44:49;;;;;;;6.97;2.80;;;;;;;18.64;66.59;100015.03;5072179;28;20672;-68
2023/08/29 01:47:17;;;;;;;4.17;3.13;;;;;;;18.60;66.64;100016.50;5070611;28;20215;-68
2023/08/29 01:49:45;;;;;;;4.67;2.83;;;;;;;18.60;66.77;100013.81;5074687;28;20206;-67
2023/08/29 01:52:13;;;;;;;4.80;3.00;;;;;;;18.59;66.79;100017.53;5073012;28;20230;-68
2023/08/29 01:54:40;;;;;;;4.30;3.20;;;;;;;18.56;67.18;100010.66;5074458;28;20230;-68
2023/08/29 01:57:11;;;;;;;8.83;3.17;;;;;;;18.57;67.10;100006.16;5074939;28;20230;-68
2023/08/29 01:59:39;;;;;;;5.97;3.10;;;;;;;18.57;67.16;100001.63;5074927;28;20997;-68
2023/08/29 02:02:09;;;;;;;5.37;3.10;;;;;;;18.60;67.08;100005.75;5071782;28;20294;-70
2023/08/29 02:04:37;;;;;;;5.37;3.40;;;;;;;18.59;67.35;100004.91;5071729;28;20326;-67
2023/08/29 02:07:05;;;;;;;6.37;3.77;;;;;;;18.59;67.24;100010.28;5071506;28;20579;-67
2023/08/29 02:09:32;;;;;;;4.87;3.13;;;;;;;18.59;67.05;100004.09;5070468;28;20298;-68
2023/08/29 02:12:00;;;;;;;5.23;3.30;;;;;;;18.58;67.50;100002.44;5074892;28;20257;-68
2023/08/29 02:14:28;;;;;;;4.70;2.90;;;;;;;18.59;67.48;99998.72;5069830;28;20234;-67
2023/08/29 02:16:55;;;;;;;4.97;3.27;;;;;;;18.56;67.38;99994.56;5072959;28;20207;-67
2023/08/29 02:19:26;;;;;;;7.43;3.37;;;;;;;18.57;67.66;99998.94;5072910;28;20691;-67
2023/08/29 02:21:53;;;;;;;4.80;2.90;;;;;;;18.55;67.39;99981.38;5075106;28;20330;-67
2023/08/29 02:24:21;;;;;;;5.63;3.23;;;;;;;18.55;67.67;99973.31;5071654;28;20256;-68
2023/08/29 02:26:49;;;;;;;4.20;3.10;;;;;;;18.54;67.41;99964.44;5067646;28;20633;-69
2023/08/29 02:29:17;;;;;;;4.80;3.20;;;;;;;18.53;67.49;99956.59;5072119;28;20217;-68
2023/08/29 02:31:45;;;;;;;6.10;3.30;;;;;;;18.53;67.62;99956.59;5071223;28;20199;-69
2023/08/29 02:34:13;;;;;;;6.73;3.57;;;;;;;18.50;67.64;99946.25;5075809;28;20235;-67
2023/08/29 02:36:42;;;;;;;5.70;3.43;;;;;;;18.49;67.81;99950.81;5072477;28;20192;-66
2023/08/29 02:39:10;;;;;;;5.40;3.80;;;;;;;18.48;67.80;99949.16;5072645;28;20214;-67
2023/08/29 02:41:38;;;;;;;6.07;3.70;;;;;;;18.47;67.97;99946.72;5072969;28;20851;-67
2023/08/29 02:44:05;;;;;;;5.77;3.60;;;;;;;18.46;68.31;99947.75;5075570;28;20280;-67
2023/08/29 02:46:33;;;;;;;5.80;3.60;;;;;;;18.46;68.49;99950.41;5072414;28;20208;-67
2023/08/29 02:49:01;;;;;;;7.17;3.70;;;;;;;18.47;68.26;99949.38;5072691;28;20203;-68
2023/08/29 02:51:28;;;;;;;5.00;3.77;;;;;;;18.47;68.47;99947.50;5073937;28;20213;-66
2023/08/29 02:53:57;;;;;;;10.13;3.63;;;;;;;18.47;68.72;99952.88;5075080;28;20207;-67
2023/08/29 02:56:25;;;;;;;4.70;3.60;;;;;;;18.43;68.56;99944.44;5072730;28;20233;-68
2023/08/29 02:58:54;;;;;;;5.83;3.77;;;;;;;18.45;68.77;99940.72;5074850;28;20207;-66
2023/08/29 03:01:22;;;;;;;4.70;3.37;;;;;;;18.42;68.50;99945.47;5074691;28;20215;-67
2023/08/29 03:03:49;;;;;;;5.73;3.93;;;;;;;18.42;69.12;99945.47;5074188;28;20234;-67
2023/08/29 03:06:17;;;;;;;5.57;4.00;;;;;;;18.39;68.89;99951.25;5072997;28;20212;-67
2023/08/29 03:08:45;;;;;;;9.50;4.20;;;;;;;18.38;68.80;99954.16;5074183;28;20215;-67
2023/08/29 03:11:14;;;;;;;6.63;4.03;;;;;;;18.39;68.88;99956.63;5073608;28;20199;-67
2023/08/29 03:13:42;;;;;;;5.73;4.10;;;;;;;18.42;68.50;99963.44;5074675;28;20334;-68
2023/08/29 03:16:13;;;;;;;6.17;3.90;;;;;;;18.39;68.80;99967.34;5068731;28;20301;-68
2023/08/29 03:18:42;;;;;;;7.17;4.50;;;;;;;18.37;68.76;99965.94;5069434;28;20247;-68
2023/08/29 03:21:10;;;;;;;7.10;3.90;;;;;;;18.38;68.71;99971.06;5071311;28;20199;-69
2023/08/29 03:23:38;;;;;;;5.60;4.10;;;;;;;18.38;68.87;99967.59;5068585;28;20203;-67
2023/08/29 03:26:06;;;;;;;6.90;3.93;;;;;;;18.38;69.00;99965.69;5069235;28;20318;-68
2023/08/29 03:28:39;;;;;;;8.13;4.33;;;;;;;18.38;69.28;99968.38;5067348;28;20222;-67
2023/08/29 03:31:11;;;;;;;8.90;3.87;;;;;;;18.37;69.23;99971.31;5073976;28;20286;-69
2023/08/29 03:33:39;;;;;;;6.47;3.97;;;;;;;18.36;69.00;99967.78;5069555;28;20207;-69
2023/08/29 03:36:07;;;;;;;6.50;4.47;;;;;;;18.37;69.17;99961.41;5073077;28;20309;-67
2023/08/29 03:38:36;;;;;;;7.07;4.50;;;;;;;18.38;69.07;99960.34;5070262;28;20303;-66
2023/08/29 03:41:05;;;;;;;8.97;5.17;;;;;;;18.38;68.84;99964.91;5068742;28;20215;-68
2023/08/29 03:43:34;;;;;;;4.80;3.90;;;;;;;18.38;68.94;99970.28;5068100;28;20285;-67
2023/08/29 03:46:04;;;;;;;6.23;4.07;;;;;;;18.35;69.20;99966.13;5071123;28;20294;-66
2023/08/29 03:48:33;;;;;;;8.97;4.00;;;;;;;18.35;68.98;99966.13;5069392;28;20227;-69
2023/08/29 03:51:05;;;;;;;5.13;4.20;;;;;;;18.36;69.01;99970.47;5070094;28;20207;-68
2023/08/29 03:53:34;;;;;;;5.10;3.97;;;;;;;18.37;68.82;99968.63;5067352;28;20658;-68
2023/08/29 03:56:03;;;;;;;7.67;4.07;;;;;;;18.37;68.84;99969.44;5072629;28;20309;-67
2023/08/29 03:58:31;;;;;;;7.07;4.20;;;;;;;18.37;69.18;99964.09;5073153;28;21041;-66
2023/08/29 04:00:59;;;;;;;5.87;4.03;;;;;;;18.37;69.23;99958.72;5077034;28;20206;-67
2023/08/29 04:03:28;;;;;;;4.97;4.20;;;;;;;18.36;68.85;99962.44;5071267;28;20202;-67
2023/08/29 04:05:56;;;;;;;7.60;4.30;;;;;;;18.36;68.94;99962.44;5077110;28;20218;-67
2023/08/29 04:08:24;;;;;;;6.07;4.47;;;;;;;18.38;69.38;99959.53;5073593;28;20215;-68
2023/08/29 04:10:52;;;;;;;7.73;4.57;;;;;;;18.35;69.54;99955.41;5075465;28;20303;-68
2023/08/29 04:13:21;;;;;;;6.47;4.33;;;;;;;18.35;69.70;99963.47;5074981;28;20214;-65
2023/08/29 04:15:49;;;;;;;9.27;4.70;;;;;;;18.34;69.38;99959.13;5075608;28;20280;-66
2023/08/29 04:18:17;;;;;;;6.20;4.93;;;;;;;18.32;69.84;99955.81;5073361;28;20219;-68
2023/08/29 04:20:46;;;;;;;7.63;4.93;;;;;;;18.32;69.87;99952.31;5072669;28;20763;-69
2023/08/29 04:23:13;;;;;;;8.40;5.03;;;;;;;18.31;69.81;99951.47;5073827;28;20310;-67
2023/08/29 04:25:41;;;;;;;7.10;5.10;;;;;;;18.32;70.13;99950.44;5077825;28;20297;-68
2023/08/29 04:28:09;;;;;;;7.83;5.13;;;;;;;18.32;69.93;99950.44;5076114;28;20203;-69
2023/08/29 04:30:37;;;;;;;7.23;4.70;;;;;;;18.33;69.85;99953.97;5077222;28;20263;-68
2023/08/29 04:33:06;;;;;;;6.33;5.00;;;;;;;18.33;69.71;99952.09;5077201;28;20207;-67
2023/08/29 04:35:34;;;;;;;6.60;4.77;;;;;;;18.31;70.20;99943.44;5076959;28;21175;-68
2023/08/29 04:38:03;;;;;;;6.90;5.17;;;;;;;18.32;70.05;99955.81;5079725;28;20683;-66
2023/08/29 04:40:32;;;;;;;8.70;5.40;;;;;;;18.32;70.31;99952.31;5073892;28;21039;-68
2023/08/29 04:42:59;;;;;;;6.87;5.37;;;;;;;18.33;70.33;99952.09;5078361;28;20227;-69
2023/08/29 04:45:27;;;;;;;9.73;5.90;;;;;;;18.34;70.21;99951.06;5076279;28;20263;-69
2023/08/29 04:47:55;;;;;;;11.30;5.50;;;;;;;18.34;70.00;99953.75;5076210;28;20203;-67
2023/08/29 04:50:23;;;;;;;9.20;5.90;;;;;;;18.34;69.78;99947.56;5077052;28;20203;-68
2023/08/29 04:52:53;;;;;;;9.57;5.37;;;;;;;18.33;69.89;99945.91;5078177;28;20237;-67
2023/08/29 04:55:23;;;;;;;6.50;5.03;;;;;;;18.32;70.03;99937.03;5077025;28;20286;-67
2023/08/29 04:57:51;;;;;;;11.07;4.63;;;;;;;18.31;69.92;99940.75;5075555;28;20237;-67
2023/08/29 05:00:19;;;;;;;8.53;5.50;;;;;;;18.31;70.43;99947.97;5076349;28;20543;-66
2023/08/29 05:02:47;;;;;;;10.77;5.67;;;;;;;18.29;70.72;99934.78;5080703;28;20212;-66
2023/08/29 05:05:15;;;;;;;7.03;5.30;;;;;;;18.28;70.71;99937.69;5076854;28;20668;-65
2023/08/29 05:07:43;;;;;;;6.90;5.37;;;;;;;18.27;70.30;99939.53;5074681;28;20290;-65
2023/08/29 05:10:11;;;;;;;10.03;5.20;;;;;;;18.26;70.50;99932.50;5079633;28;20291;-65
2023/08/29 05:12:41;;;;;;;9.70;5.90;;;;;;;18.26;70.29;99940.56;5074868;28;20222;-66
2023/08/29 05:15:09;;;;;;;8.30;5.40;;;;;;;18.26;70.39;99939.75;5074498;28;20215;-65
2023/08/29 05:17:37;;;;;;;7.83;5.70;;;;;;;18.25;70.39;99944.28;5072459;28;20231;-66
2023/08/29 05:20:09;;;;;;;6.83;5.43;;;;;;;18.26;70.59;99937.88;5075728;28;20203;-64
2023/08/29 05:22:37;;;;;;;10.47;5.20;;;;;;;18.26;70.32;99935.19;5076461;28;20206;-65
2023/08/29 05:25:06;;;;;;;9.00;5.40;;;;;;;18.26;70.41;99931.69;5075534;28;20765;-66
2023/08/29 05:27:34;;;;;;;8.30;5.67;;;;;;;18.27;70.54;99933.34;5074369;28;20246;-65
2023/08/29 05:30:05;;;;;;;8.70;5.80;;;;;;;18.27;70.66;99933.34;5074707;28;20247;-66
2023/08/29 05:32:33;;;;;;;11.27;5.77;;;;;;;18.27;70.15;99936.84;5074535;28;20840;-68
2023/08/29 05:35:00;;;;;;;8.00;5.33;;;;;;;18.29;70.27;99937.47;5077912;28;20202;-66
2023/08/29 05:37:28;;;;;;;7.77;5.40;;;;;;;18.29;70.29;99937.47;5076297;28;20326;-65
2023/08/29 05:39:56;;;;;;;8.00;5.63;;;;;;;18.29;70.49;99942.84;5071515;28;20238;-66
2023/08/29 05:42:23;;;;;;;10.87;6.10;;;;;;;18.29;70.13;99942.00;5074320;28;20730;-66
2023/08/29 05:44:51;;;;;;;8.13;5.03;;;;;;;18.30;70.24;99941.78;5077788;28;20939;-64
2023/08/29 05:47:20;;;;;;;8.93;6.03;;;;;;;18.29;70.58;99939.31;5074532;28;20295;-67
2023/08/29 05:49:48;;;;;;;8.53;6.13;;;;;;;18.30;70.72;99935.59;5075170;28;20206;-68
2023/08/29 05:52:16;;;;;;;7.43;4.83;;;;;;;18.32;70.77;99947.75;5076661;28;20265;-66
2023/08/29 05:54:43;;;;;;;8.10;5.53;;;;;;;18.28;70.82;99940.34;5076616;28;20292;-66
2023/08/29 05:57:11;;;;;;;9.40;4.80;;;;;;;18.27;71.39;99942.22;5074615;28;20223;-66
2023/08/29 05:59:39;;;;;;;9.30;5.70;;;;;;;18.25;71.70;99943.47;5078716;28;20624;-66
2023/08/29 06:02:07;;;;;;;10.87;5.60;;;;;;;18.24;71.42;99936.44;5075388;28;20942;-64
2023/08/29 06:04:37;;;;;;;13.27;6.37;;;;;;;18.25;71.43;99941.59;5074716;28;20327;-66
2023/08/29 06:07:06;;;;;;;12.60;6.47;;;;;;;18.29;70.85;99940.16;5092866;22;20752;-72
2023/08/29 06:09:34;;;;;;;9.83;6.20;;;;;;;18.30;70.84;99936.41;5094221;28;20226;-71
2023/08/29 06:12:05;;;;;;;8.23;5.90;;;;;;;18.32;70.50;99939.72;5093712;28;20313;-69
2023/08/29 06:14:33;;;;;;;8.70;5.63;;;;;;;18.36;70.74;99940.94;5093249;28;20592;-68
2023/08/29 06:17:02;;;;;;;8.67;6.10;;;;;;;18.35;70.56;99933.94;5094265;28;20258;-72
2023/08/29 06:19:30;;;;;;;10.03;5.33;;;;;;;18.36;70.92;99940.13;5093538;28;20286;-72
2023/08/29 06:22:01;;;;;;;7.90;5.90;;;;;;;18.37;70.85;99937.25;5094031;28;20238;-70
2023/08/29 06:24:33;;;;;;;8.97;6.00;;;;;;;18.40;71.04;99944.84;5094055;28;20191;-72
2023/08/29 06:27:02;;;;;;;8.27;4.60;;;;;;;18.45;71.16;99952.28;5093679;28;20198;-69
2023/08/29 06:29:33;;;;;;;6.73;5.50;;;;;;;18.43;71.20;99951.66;5093966;28;20255;-71
2023/08/29 06:32:02;;;;;;;8.27;5.23;;;;;;;18.42;70.65;99947.31;5094372;28;20191;-70
2023/08/29 06:34:31;;;;;;;8.63;5.53;;;;;;;18.45;70.66;99949.59;5093990;28;20278;-71
2023/08/29 06:37:02;;;;;;;8.50;6.07;;;;;;;18.46;70.18;99953.94;5093009;28;20561;-70
2023/08/29 06:39:30;;;;;;;11.30;6.00;;;;;;;18.47;70.62;99957.44;5093834;28;20198;-68
2023/08/29 06:41:59;;;;;;;12.40;6.87;;;;;;;18.48;70.89;99959.91;5085217;28;20231;-72
2023/08/29 06:44:27;;;;;;;9.27;6.33;;;;;;;18.49;71.34;99961.53;5077028;28;20203;-71
2023/08/29 06:46:56;;;;;;;14.50;6.37;;;;;;;18.48;70.71;99962.56;5077050;28;20315;-71
2023/08/29 06:49:28;;;;;;;10.20;7.13;;;;;;;18.47;71.42;99965.50;5076454;28;20307;-72
2023/08/29 06:51:56;;;;;;;7.50;6.23;;;;;;;18.46;71.48;99966.53;5075841;28;20285;-70
2023/08/29 06:54:28;;;;;;;9.27;6.57;;;;;;;18.47;71.86;99970.88;5075905;28;20247;-72
2023/08/29 06:56:59;;;;;;;12.50;7.67;;;;;;;18.49;71.33;99966.91;5076419;28;20254;-70
2023/08/29 06:59:29;;;;;;;10.03;7.70;;;;;;;18.51;70.80;99972.06;5076719;28;20208;-70
2023/08/29 07:02:04;;;;;;;10.30;7.33;;;;;;;18.54;70.83;99968.97;5076674;28;20255;-73
2023/08/29 07:04:33;;;;;;;7.80;6.63;;;;;;;18.54;70.94;99963.59;5074360;28;20207;-69
2023/08/29 07:07:02;;;;;;;14.87;6.90;;;;;;;18.56;70.93;99972.28;5075273;28;20230;-72
2023/08/29 07:09:33;;;;;;;9.17;7.23;;;;;;;18.59;71.08;99963.81;5074856;28;20214;-71
2023/08/29 07:12:02;;;;;;;12.60;7.80;;;;;;;18.59;71.14;99971.88;5073076;28;20650;-70
2023/08/29 07:14:31;;;;;;;10.10;7.30;;;;;;;18.63;71.31;99975.78;5077839;28;20240;-68
2023/08/29 07:17:00;;;;;;;10.20;6.90;;;;;;;18.63;70.71;99978.47;5074910;28;20214;-71
2023/08/29 07:19:38;;;;;;;9.47;7.00;;;;;;;18.64;71.34;99980.13;5076421;28;20732;-71
2023/08/29 07:22:10;;;;;;;11.60;6.77;;;;;;;18.64;70.84;99972.91;5077336;28;20339;-72
2023/08/29 07:24:57;;;;;;;8.53;6.37;;;;;;;18.67;70.51;99985.06;5076600;28;20209;-74
2023/08/29 07:27:26;;;;;;;12.20;7.07;;;;;;;18.69;70.96;99988.38;5073867;28;20194;-69
2023/08/29 07:29:58;;;;;;;8.60;6.80;;;;;;;18.72;70.76;99994.16;5073977;28;20207;-72
2023/08/29 07:32:48;;;;;;;11.13;8.00;;;;;;;18.74;70.82;99992.06;5075775;28;20234;-72
2023/08/29 07:35:20;;;;;;;8.17;6.73;;;;;;;18.78;70.53;99992.47;5073800;28;20263;-71
2023/08/29 07:37:58;;;;;;;;;;;;;;;;;;;;;
2023/08/29 07:40:31;;;;;;;12.80;7.60;;;;;;;18.83;70.62;100003.38;5075651;28;20679;-70
2023/08/29 07:43:06;;;;;;;12.07;7.13;;;;;;;18.86;70.67;99997.59;5074458;28;20223;-72
2023/08/29 07:45:46;;;;;;;12.33;6.77;;;;;;;18.90;70.36;100011.44;5077816;28;20759;-70
2023/08/29 07:48:16;;;;;;;10.27;7.23;;;;;;;18.92;69.94;99999.41;5073282;28;20211;-68
2023/08/29 07:50:45;;;;;;;10.63;6.57;;;;;;;18.97;69.79;100006.84;5073049;28;20235;-71
2023/08/29 07:53:16;;;;;;;11.03;6.87;;;;;;;18.98;70.02;100009.34;5076630;28;20754;-72
2023/08/29 07:55:50;;;;;;;10.70;6.10;;;;;;;19.04;69.47;100003.09;5075426;28;20437;-72
2023/08/29 07:58:19;;;;;;;9.73;6.83;;;;;;;19.06;69.88;100017.16;5074005;28;20234;-71
2023/08/29 08:00:49;;;;;;;11.53;7.10;;;;;;;19.11;69.54;100013.81;5077611;28;20649;-71
2023/08/29 08:03:18;;;;;;;7.67;5.83;;;;;;;19.14;69.92;100014.22;5078938;28;21114;-71
2023/08/29 08:08:56;;;;;;;10.53;6.73;;;;;;;19.26;69.38;100016.22;5073906;28;20316;-72
2023/08/29 08:11:26;;;;;;;7.93;6.03;;;;;;;19.30;69.42;100022.81;5077409;28;20271;-72
2023/08/29 08:13:54;;;;;;;9.27;6.40;;;;;;;19.33;68.59;100019.69;5077908;28;20910;-71
2023/08/29 08:16:23;;;;;;;9.57;6.17;;;;;;;19.38;68.39;100019.84;5077921;28;20299;-70
2023/08/29 08:18:57;;;;;;;12.30;6.33;;;;;;;19.44;68.52;100024.34;5077081;28;20249;-70
2023/08/29 08:21:25;;;;;;;8.50;6.13;;;;;;;19.49;67.70;100024.59;5076256;28;20203;-68
2023/08/29 08:23:54;;;;;;;8.73;5.70;;;;;;;19.54;67.35;100027.44;5077275;28;20208;-72
2023/08/29 08:26:22;;;;;;;9.00;5.90;;;;;;;19.59;67.63;100030.31;5079232;28;20211;-72
2023/08/29 08:28:55;;;;;;;7.60;5.63;;;;;;;19.65;66.99;100032.13;5078408;28;20209;-71
2023/08/29 08:31:23;;;;;;;8.80;5.73;;;;;;;19.72;66.47;100034.75;5078536;28;20199;-71
2023/08/29 08:33:52;;;;;;;9.70;5.10;;;;;;;19.77;66.91;100035.78;5078302;28;20898;-73
2023/08/29 08:36:21;;;;;;;11.37;5.10;;;;;;;19.82;66.14;100037.78;5080305;28;20210;-70
2023/08/29 08:38:49;;;;;;;7.87;5.10;;;;;;;19.86;65.85;100034.47;5078259;28;20219;-73
2023/08/29 08:41:19;;;;;;;8.40;4.70;;;;;;;19.90;65.60;100032.97;5074395;28;21126;-70
2023/08/29 08:44:03;;;;;;;9.13;4.70;;;;;;;19.94;65.41;100044.13;5075971;28;20211;-71
2023/08/29 08:46:34;;;;;;;7.87;4.73;;;;;;;19.98;65.78;100039.09;5080357;28;20282;-70
2023/08/29 08:49:03;;;;;;;8.30;5.00;;;;;;;20.02;65.74;100037.66;5075633;28;20786;-70
2023/08/29 08:51:33;;;;;;;9.27;4.40;;;;;;;20.08;65.19;100036.75;5075447;28;20820;-71
2023/08/29 08:54:06;;;;;;;10.43;4.57;;;;;;;20.12;64.97;100035.28;5080659;28;20664;-76
2023/08/29 08:56:43;;;;;;;7.83;4.63;;;;;;;20.14;64.42;100025.13;5075304;28;20237;-72
2023/08/29 08:59:14;;;;;;;10.03;5.10;;;;;;;20.19;64.17;100039.56;5077826;28;20237;-72
2023/08/29 09:01:42;;;;;;;7.70;5.03;;;;;;;20.22;64.37;100043.69;5080414;28;20207;-73
2023/08/29 09:04:14;;;;;;;10.33;5.60;;;;;;;20.26;64.17;100045.69;5076874;28;20210;-73
2023/08/29 09:06:43;;;;;;;9.87;5.63;;;;;;;20.27;64.69;100041.97;5077736;28;20225;-70
2023/08/29 09:09:19;;;;;;;8.07;6.10;;;;;;;20.27;64.28;100046.53;5077146;28;20207;-75
2023/08/29 09:12:03;;;;;;;11.90;6.30;;;;;;;20.28;63.61;100048.19;5081365;28;20194;-69
2023/08/29 09:14:33;;;;;;;10.13;5.77;;;;;;;20.28;64.19;100049.00;5076003;28;20912;-69
2023/08/29 09:17:04;;;;;;;9.10;5.73;;;;;;;20.29;64.44;100052.53;5075390;28;20651;-68
2023/08/29 09:19:34;;;;;;;13.77;6.17;;;;;;;20.29;64.60;100045.25;5077529;28;20285;-69
2023/08/29 09:22:02;;;;;;;10.37;5.50;;;;;;;20.33;64.67;100059.09;5078014;28;20262;-71
2023/08/29 09:24:35;;;;;;;11.03;6.17;;;;;;;20.33;64.79;100052.88;5078260;28;20206;-67
2023/08/29 09:27:08;;;;;;;9.07;6.80;;;;;;;20.35;64.32;100059.72;5077204;28;20711;-71
2023/08/29 09:29:38;;;;;;;9.40;7.83;;;;;;;20.35;64.18;100059.72;5075824;28;20305;-72
2023/08/29 09:32:14;;;;;;;11.27;6.77;;;;;;;20.34;64.14;100058.09;5076363;28;20210;-70
2023/08/29 09:34:42;;;;;;;7.67;6.40;;;;;;;20.33;64.09;100060.97;5075225;28;20813;-72
2023/08/29 09:37:12;;;;;;;8.77;6.10;;;;;;;20.35;64.40;100050.84;5076436;28;20267;-71
2023/08/29 09:39:40;;;;;;;8.67;6.50;;;;;;;20.40;65.11;100046.44;5079366;28;20300;-71
2023/08/29 09:42:11;;;;;;;12.47;7.33;;;;;;;20.48;65.12;100051.53;5074649;28;20229;-71
2023/08/29 09:44:42;;;;;;;13.53;8.30;;;;;;;20.57;64.26;100047.50;5074913;28;20245;-67
2023/08/29 09:47:11;;;;;;;11.17;8.03;;;;;;;20.66;64.20;100050.75;5076234;28;20206;-73
2023/08/29 09:49:47;;;;;;;12.93;6.40;;;;;;;20.77;64.39;100043.75;5076794;28;20222;-74
2023/08/29 09:52:16;;;;;;;7.70;6.13;;;;;;;20.83;63.22;100048.25;5073959;28;20211;-73
2023/08/29 09:54:50;;;;;;;7.47;6.13;;;;;;;20.91;62.23;100042.56;5078021;28;20293;-71
2023/08/29 09:57:24;;;;;;;8.10;5.73;;;;;;;21.00;62.38;100041.22;5075713;28;20202;-71
2023/08/29 09:59:58;;;;;;;9.07;7.03;;;;;;;21.13;61.81;100038.34;5077161;28;20580;-69
2023/08/29 10:02:31;;;;;;;10.23;6.50;;;;;;;21.26;61.42;100034.69;5075980;28;20203;-72
2023/08/29 10:05:08;;;;;;;7.00;4.97;;;;;;;21.41;60.57;100032.41;5077428;28;20211;-69
2023/08/29 10:07:41;;;;;;;6.80;4.83;;;;;;;21.62;59.47;100031.06;5076723;28;20235;-71
2023/08/29 10:10:11;;;;;;;6.23;3.67;;;;;;;21.70;58.89;100036.94;5076368;28;20203;-68
2023/08/29 10:12:40;;;;;;;8.57;3.83;;;;;;;21.73;58.25;100025.69;5076980;28;20287;-71
2023/08/29 10:15:11;;;;;;;5.10;3.40;;;;;;;21.96;58.07;100014.13;5075765;28;20210;-69
2023/08/29 10:17:42;;;;;;;6.70;4.20;;;;;;;22.63;55.39;100022.69;5073547;28;20204;-70
2023/08/29 10:20:13;;;;;;;5.53;3.33;;;;;;;22.84;54.84;100026.69;5076000;28;20309;-70
2023/08/29 10:22:45;;;;;;;7.03;3.60;;;;;;;23.06;54.53;100008.72;5075219;28;20199;-68
2023/08/29 10:25:14;;;;;;;4.32;3.03;;;;;;;23.02;54.35;100012.16;5076924;28;20214;-68
2023/08/29 10:27:43;;;;;;;9.40;3.95;;;;;;;22.79;55.77;100011.16;5074289;28;20677;-69
2023/08/29 10:30:14;;;;;;;4.90;2.90;;;;;;;22.56;55.30;100023.88;5075551;28;20301;-72
2023/08/29 10:32:44;;;;;;;4.05;2.28;;;;;;;22.33;55.84;100022.84;5075243;28;20199;-74
2023/08/29 10:35:19;;;;;;;4.93;3.10;;;;;;;22.12;55.90;100026.94;5074200;28;20216;-70
2023/08/29 10:37:51;;;;;;;6.05;2.80;;;;;;;21.95;56.90;100023.25;5074199;28;20207;-72
2023/08/29 10:40:21;;;;;;;5.28;2.63;;;;;;;21.80;56.97;100020.19;5075805;28;20222;-69
2023/08/29 10:42:51;;;;;;;4.50;2.72;;;;;;;21.71;57.48;100017.00;5076690;28;20234;-73
2023/08/29 10:45:22;;;;;;;3.67;2.85;;;;;;;21.71;57.80;100016.19;5074196;28;20207;-72
2023/08/29 10:47:54;;;;;;;3.85;2.50;;;;;;;21.68;57.09;100014.75;5074920;28;20221;-73
2023/08/29 10:50:22;;;;;;;6.13;2.72;;;;;;;21.65;57.88;100009.00;5076132;28;20207;-70
2023/08/29 10:52:58;;;;;;;4.15;3.00;;;;;;;21.63;58.16;100014.66;5075735;28;20238;-70
2023/08/29 10:55:28;;;;;;;6.77;3.10;;;;;;;21.64;58.10;100015.44;5077311;28;20211;-72
2023/08/29 10:57:58;;;;;;;6.00;3.00;;;;;;;21.65;57.72;100007.13;5077055;28;20200;-74
2023/08/29 11:00:56;;;;;;;6.50;2.83;;;;;;;21.73;57.24;100011.34;5074990;28;20563;-67
2023/08/29 11:03:43;;;;;;;5.50;2.40;;;;;;;21.79;56.76;100007.75;5075626;28;20201;-67
2023/08/29 11:06:12;;;;;;;3.95;2.17;;;;;;;21.80;57.37;100009.41;5075282;28;20285;-72
2023/08/29 11:08:40;;;;;;;4.13;2.42;;;;;;;21.84;56.72;99999.78;5077028;28;20221;-72
2023/08/29 11:11:18;;;;;;;5.77;2.50;;;;;;;21.95;56.58;100001.66;5073322;28;20210;-72
2023/08/29 11:13:58;;;;;;;4.03;2.45;;;;;;;22.15;55.74;99995.97;5073920;28;20714;-69
2023/08/29 11:16:34;;;;;;;5.03;2.85;;;;;;;22.29;55.56;99997.34;5075720;28;20287;-72
2023/08/29 11:19:07;;;;;;;5.93;2.95;;;;;;;22.53;55.03;99982.75;5072995;28;20696;-71
2023/08/29 11:21:35;;;;;;;7.50;2.70;;;;;;;23.40;52.40;99989.88;5075793;28;20572;-71
2023/08/29 11:24:05;;;;;;;4.38;2.47;;;;;;;24.73;48.56;99983.56;5075063;28;20207;-71
2023/08/29 11:26:41;;;;;;;4.55;2.90;;;;;;;28.53;40.95;99976.47;5071959;28;20202;-67
2023/08/29 11:29:12;;;;;;;7.53;3.20;;;;;;;32.13;34.19;99962.53;5074509;28;20198;-69
2023/08/29 11:31:44;;;;;;;4.15;2.60;;;;;;;32.68;32.64;99962.56;5075217;28;20737;-69
2023/08/29 11:34:14;;;;;;;3.88;1.67;;;;;;;32.74;32.18;99962.19;5078048;28;20203;-72
2023/08/29 11:36:44;;;;;;;3.53;1.77;;;;;;;32.63;31.64;99957.19;5076485;28;20227;-68
2023/08/29 11:39:26;;;;;;;3.85;1.73;;;;;;;32.20;32.42;99959.41;5079111;28;20199;-71
2023/08/29 11:41:59;;;;;;;4.60;1.90;;;;;;;31.32;33.59;99956.47;5078855;28;20289;-69
2023/08/29 11:44:47;;;;;;;4.68;1.65;;;;;;;30.43;34.81;99943.72;5077689;28;20210;-72